Time;durP1;ratioP1;P1;durP2;ratioP2;P2;SDS_P1;SDS_P2;PMS_P1;PMS_P2;Temp;Humidity;BMP_temperature;BMP_pressure;BME280_temperature;BME280_humidity;BME280_pressure;Samples;Min_cycle;Max_cycle;Signal;HPM_P1;HPM_P2
2022/03/08 00:02:17;;;;;;;14.63;9.17;;;3.60;65.90;;;;;;5055206;28;20120;-82
2022/03/08 00:04:43;;;;;;;15.37;8.27;;;3.80;65.20;;;;;;5055037;28;20392;-83
2022/03/08 00:07:09;;;;;;;16.33;8.70;;;3.50;65.50;;;;;;5048451;28;20025;-82
2022/03/08 00:09:36;;;;;;;15.67;8.57;;;3.60;65.00;;;;;;5034969;28;20040;-82
2022/03/08 00:12:02;;;;;;;17.40;8.60;;;3.60;65.00;;;;;;5034966;28;20573;-83
2022/03/08 00:14:29;;;;;;;17.00;8.77;;;3.60;65.20;;;;;;5018432;28;20033;-83
2022/03/08 00:16:55;;;;;;;15.57;8.67;;;3.70;65.40;;;;;;5036078;28;20033;-83
2022/03/08 00:19:21;;;;;;;15.17;8.70;;;3.50;65.20;;;;;;5034927;28;20109;-84
2022/03/08 00:21:46;;;;;;;17.60;9.33;;;3.50;65.10;;;;;;5044250;28;20159;-83
2022/03/08 00:24:12;;;;;;;15.73;8.97;;;3.50;65.10;;;;;;5055486;28;20033;-83
2022/03/08 00:26:38;;;;;;;14.73;8.23;;;3.50;65.20;;;;;;5038286;28;20035;-82
2022/03/08 00:29:04;;;;;;;15.30;8.33;;;3.50;65.40;;;;;;5038195;28;20415;-83
2022/03/08 00:31:29;;;;;;;14.43;8.40;;;3.40;65.30;;;;;;5038014;28;20048;-83
2022/03/08 00:33:55;;;;;;;16.70;8.83;;;3.40;65.40;;;;;;5021452;28;20029;-83
2022/03/08 00:36:21;;;;;;;15.67;8.67;;;3.40;65.40;;;;;;5037810;28;20037;-83
2022/03/08 00:38:46;;;;;;;14.20;8.43;;;3.30;65.40;;;;;;5038126;28;20029;-82
2022/03/08 00:41:12;;;;;;;16.77;8.63;;;3.40;65.60;;;;;;5017912;28;20048;-83
2022/03/08 00:43:37;;;;;;;13.37;7.67;;;3.30;65.40;;;;;;5034290;28;20030;-82
2022/03/08 00:46:03;;;;;;;14.53;7.70;;;3.30;65.60;;;;;;5034873;28;20029;-82
2022/03/08 00:48:29;;;;;;;13.37;7.63;;;3.30;65.60;;;;;;5035404;28;20045;-82
2022/03/08 00:50:56;;;;;;;15.40;8.53;;;3.30;65.50;;;;;;5018010;28;20065;-82
2022/03/08 00:53:22;;;;;;;17.83;8.13;;;3.20;65.40;;;;;;5034131;28;20135;-82
2022/03/08 00:55:47;;;;;;;14.03;7.63;;;3.20;65.60;;;;;;5035262;28;20033;-82
2022/03/08 00:58:13;;;;;;;14.17;7.57;;;3.20;65.60;;;;;;5034047;28;20068;-81
2022/03/08 01:00:40;;;;;;;12.77;6.77;;;3.20;65.60;;;;;;5017543;28;20022;-82
2022/03/08 01:03:06;;;;;;;12.33;6.83;;;3.10;65.50;;;;;;5035155;28;20386;-82
2022/03/08 01:05:33;;;;;;;15.47;7.80;;;3.20;65.50;;;;;;5017385;28;20432;-82
2022/03/08 01:07:59;;;;;;;15.30;7.47;;;3.20;65.40;;;;;;5017414;28;20116;-82
2022/03/08 01:10:26;;;;;;;13.23;6.90;;;3.20;65.60;;;;;;5051718;28;20426;-82
2022/03/08 01:12:53;;;;;;;15.73;7.23;;;3.20;65.70;;;;;;5053781;28;20100;-83
2022/03/08 01:15:20;;;;;;;13.67;7.63;;;3.20;65.70;;;;;;5053744;28;20025;-83
2022/03/08 01:17:47;;;;;;;13.13;7.27;;;3.10;65.70;;;;;;5037011;28;20025;-82
2022/03/08 01:20:14;;;;;;;15.27;7.47;;;3.10;65.60;;;;;;5020592;28;20029;-83
2022/03/08 01:22:40;;;;;;;13.73;7.50;;;3.20;66.00;;;;;;5034479;28;20377;-83
2022/03/08 01:25:07;;;;;;;18.13;7.70;;;3.10;65.70;;;;;;5034718;28;20033;-83
2022/03/08 01:27:33;;;;;;;14.57;7.07;;;3.10;65.90;;;;;;5033586;28;20033;-83
2022/03/08 01:29:59;;;;;;;13.53;7.17;;;3.10;65.80;;;;;;5024473;28;20095;-83
2022/03/08 01:32:25;;;;;;;14.17;7.40;;;3.10;65.90;;;;;;5033422;28;20084;-83
2022/03/08 01:34:50;;;;;;;12.77;7.23;;;3.10;66.00;;;;;;5033352;28;20029;-81
2022/03/08 01:37:16;;;;;;;13.80;7.37;;;3.00;65.70;;;;;;5016985;28;20172;-82
2022/03/08 01:39:42;;;;;;;12.67;6.93;;;3.00;65.70;;;;;;5017326;28;20136;-82
2022/03/08 01:42:13;;;;;;;13.87;7.57;;;3.00;65.70;;;;;;5034400;28;20060;-82
2022/03/08 01:44:41;;;;;;;15.97;7.67;;;3.00;65.90;;;;;;5034338;28;20033;-82
2022/03/08 01:47:07;;;;;;;12.47;6.53;;;3.00;65.90;;;;;;5034436;28;20034;-83
2022/03/08 01:49:33;;;;;;;13.87;7.37;;;3.00;66.00;;;;;;5032951;28;20052;-83
2022/03/08 01:51:59;;;;;;;15.63;6.60;;;2.90;66.00;;;;;;5033015;28;20429;-82
2022/03/08 01:54:24;;;;;;;15.60;7.57;;;3.00;67.00;;;;;;5016943;28;20045;-82
2022/03/08 01:56:50;;;;;;;12.00;6.47;;;3.00;66.00;;;;;;5016455;28;20513;-83
2022/03/08 01:59:16;;;;;;;13.83;7.00;;;2.90;66.30;;;;;;5033057;28;20030;-83
2022/03/08 02:01:41;;;;;;;13.63;7.43;;;2.90;66.10;;;;;;5032869;28;20095;-83
2022/03/08 02:04:07;;;;;;;14.23;8.03;;;2.90;66.00;;;;;;5016360;28;20041;-83
2022/03/08 02:06:32;;;;;;;13.93;7.00;;;2.80;66.20;;;;;;5034041;28;20480;-83
2022/03/08 02:08:58;;;;;;;13.50;6.83;;;2.80;66.50;;;;;;5016761;28;20545;-83
2022/03/08 02:11:24;;;;;;;12.70;7.13;;;2.70;66.20;;;;;;5021665;28;20064;-83
2022/03/08 02:13:50;;;;;;;12.77;6.80;;;2.80;66.40;;;;;;5017307;28;20124;-83
2022/03/08 02:16:16;;;;;;;14.00;6.77;;;2.70;66.50;;;;;;5016129;28;20132;-83
2022/03/08 02:18:41;;;;;;;14.07;6.93;;;2.60;66.30;;;;;;5032663;28;20068;-83
2022/03/08 02:21:08;;;;;;;11.50;5.93;;;2.70;66.40;;;;;;5032830;28;20422;-83
2022/03/08 02:23:35;;;;;;;13.83;7.17;;;2.60;66.40;;;;;;5016058;28;20474;-83
2022/03/08 02:26:02;;;;;;;11.90;6.13;;;2.60;66.50;;;;;;5047137;28;20033;-83
2022/03/08 02:28:29;;;;;;;11.83;5.57;;;2.60;66.40;;;;;;5035719;28;20037;-83
2022/03/08 02:30:55;;;;;;;12.80;7.20;;;2.60;66.40;;;;;;5035730;28;20033;-83
2022/03/08 02:33:21;;;;;;;12.20;6.43;;;2.60;66.40;;;;;;5048293;28;20025;-83
2022/03/08 02:35:47;;;;;;;13.20;6.33;;;2.50;66.30;;;;;;5015910;28;20390;-82
2022/03/08 02:38:13;;;;;;;11.67;6.07;;;2.50;66.30;;;;;;5032465;28;20107;-83
2022/03/08 02:40:41;;;;;;;11.00;5.60;;;2.50;66.30;;;;;;5033232;28;20033;-82
2022/03/08 02:43:09;;;;;;;14.57;5.80;;;2.50;66.30;;;;;;5033278;28;20029;-82
2022/03/08 02:45:36;;;;;;;11.80;5.57;;;2.50;66.40;;;;;;5032181;28;20048;-82
2022/03/08 02:48:03;;;;;;;10.47;5.77;;;2.40;66.30;;;;;;5015539;28;20076;-83
2022/03/08 02:50:29;;;;;;;10.30;5.50;;;2.40;66.30;;;;;;5014980;28;20037;-82
2022/03/08 02:52:56;;;;;;;10.90;5.73;;;2.40;66.40;;;;;;5015660;28;20379;-82
2022/03/08 02:55:27;;;;;;;11.00;5.40;;;2.40;66.30;;;;;;5015709;28;20030;-83
2022/03/08 02:57:54;;;;;;;10.80;5.20;;;2.30;66.30;;;;;;5050413;28;20546;-83
2022/03/08 03:00:23;;;;;;;8.77;4.73;;;2.30;66.40;;;;;;5035119;28;20033;-82
2022/03/08 03:02:49;;;;;;;10.47;5.30;;;2.30;66.40;;;;;;5035089;28;20021;-83
2022/03/08 03:05:15;;;;;;;10.73;5.07;;;2.30;66.40;;;;;;5051727;28;20474;-83
2022/03/08 03:07:41;;;;;;;8.87;4.67;;;2.30;66.40;;;;;;5034974;28;20048;-83
2022/03/08 03:10:10;;;;;;;8.97;4.50;;;2.20;66.50;;;;;;5032643;28;20032;-83
2022/03/08 03:12:36;;;;;;;8.57;4.40;;;2.20;66.50;;;;;;5033102;28;20036;-83
2022/03/08 03:15:04;;;;;;;10.97;5.30;;;2.20;66.70;;;;;;5015260;28;20026;-83
2022/03/08 03:17:30;;;;;;;9.30;4.53;;;2.20;66.70;;;;;;5015289;28;20036;-83
2022/03/08 03:19:55;;;;;;;8.43;5.07;;;2.30;66.60;;;;;;5015270;28;20029;-83
2022/03/08 03:22:21;;;;;;;10.90;4.33;;;2.20;66.30;;;;;;5031804;28;20038;-83
2022/03/08 03:24:47;;;;;;;9.93;4.87;;;2.20;66.30;;;;;;5016733;28;20064;-82
2022/03/08 03:27:12;;;;;;;9.70;4.30;;;2.20;66.20;;;;;;5018609;28;20033;-82
2022/03/08 03:29:38;;;;;;;9.67;4.37;;;2.20;66.30;;;;;;5018735;28;20018;-83
2022/03/08 03:32:04;;;;;;;7.30;3.70;;;2.20;66.50;;;;;;5034958;28;20048;-83
2022/03/08 03:34:30;;;;;;;8.47;3.90;;;2.30;66.50;;;;;;5035004;28;20056;-83
2022/03/08 03:36:55;;;;;;;9.33;4.63;;;2.20;66.40;;;;;;5052660;28;20068;-83
2022/03/08 03:39:21;;;;;;;8.33;3.97;;;2.20;66.20;;;;;;5031459;28;20022;-83
2022/03/08 03:41:47;;;;;;;7.93;4.37;;;2.20;66.30;;;;;;5015622;28;20041;-83
2022/03/08 03:44:12;;;;;;;10.13;3.73;;;2.10;66.20;;;;;;5031575;28;20386;-83
2022/03/08 03:46:38;;;;;;;7.63;4.10;;;2.10;66.30;;;;;;5032782;28;20036;-83
2022/03/08 03:49:04;;;;;;;12.93;4.43;;;2.10;66.10;;;;;;5015014;28;20045;-83
2022/03/08 03:51:30;;;;;;;8.17;3.83;;;2.10;66.10;;;;;;5031582;28;20056;-83
2022/03/08 03:53:55;;;;;;;10.23;4.67;;;2.10;66.20;;;;;;5015210;28;20029;-83
2022/03/08 03:56:21;;;;;;;9.10;4.30;;;2.10;66.10;;;;;;5039841;28;20037;-83
2022/03/08 03:58:47;;;;;;;7.50;3.97;;;2.00;66.10;;;;;;5051315;28;20477;-83
2022/03/08 04:01:12;;;;;;;8.57;3.90;;;2.00;66.30;;;;;;5008714;28;20528;-84
2022/03/08 04:03:38;;;;;;;8.97;4.53;;;2.00;66.30;;;;;;5018447;28;20026;-83
2022/03/08 04:06:04;;;;;;;9.80;4.33;;;2.00;66.20;;;;;;5036702;28;20022;-83
2022/03/08 04:08:29;;;;;;;8.27;4.43;;;2.00;66.20;;;;;;5035011;28;20036;-83
2022/03/08 04:10:55;;;;;;;9.63;4.33;;;2.00;66.20;;;;;;5035008;28;20377;-83
2022/03/08 04:13:20;;;;;;;8.33;3.67;;;2.00;66.10;;;;;;5035255;28;20029;-83
2022/03/08 04:15:46;;;;;;;7.60;3.77;;;2.00;66.20;;;;;;5034858;28;20079;-83
2022/03/08 04:18:14;;;;;;;7.30;4.07;;;2.00;66.30;;;;;;5034469;28;20037;-83
2022/03/08 04:20:40;;;;;;;9.27;4.00;;;2.00;66.10;;;;;;5034855;28;20075;-83
2022/03/08 04:23:06;;;;;;;9.03;3.90;;;2.00;66.40;;;;;;5034841;28;20025;-82
2022/03/08 04:25:31;;;;;;;8.63;3.63;;;2.00;66.10;;;;;;5034451;28;20028;-83
2022/03/08 04:27:57;;;;;;;8.47;4.37;;;2.00;66.10;;;;;;5035564;28;20021;-83
2022/03/08 04:30:23;;;;;;;10.00;4.50;;;2.00;66.70;;;;;;5018173;28;20029;-82
2022/03/08 04:32:50;;;;;;;8.07;4.07;;;2.00;66.70;;;;;;5034513;28;20030;-83
2022/03/08 04:35:17;;;;;;;10.57;4.50;;;2.00;66.10;;;;;;5018265;28;20025;-83
2022/03/08 04:37:43;;;;;;;8.50;4.37;;;1.90;66.00;;;;;;5018175;28;20033;-83
2022/03/08 04:40:09;;;;;;;6.70;3.73;;;1.90;66.00;;;;;;5034433;28;20023;-82
2022/03/08 04:42:35;;;;;;;9.53;4.17;;;1.90;66.00;;;;;;5034336;28;20025;-82
2022/03/08 04:45:01;;;;;;;8.57;4.20;;;1.90;66.20;;;;;;5035505;28;20039;-81
2022/03/08 04:47:26;;;;;;;10.83;4.93;;;1.90;66.00;;;;;;5017851;28;20433;-83
2022/03/08 04:49:52;;;;;;;8.53;4.47;;;1.90;66.10;;;;;;5034310;28;20382;-83
2022/03/08 04:52:18;;;;;;;9.90;4.43;;;1.90;66.20;;;;;;5017728;28;20504;-83
2022/03/08 04:54:44;;;;;;;6.90;3.60;;;1.90;66.40;;;;;;5035388;28;20033;-82
2022/03/08 04:57:09;;;;;;;7.73;3.80;;;1.80;66.10;;;;;;5017808;28;20107;-82
2022/03/08 04:59:35;;;;;;;10.73;4.37;;;1.90;66.10;;;;;;5034093;28;20032;-82
2022/03/08 05:02:00;;;;;;;10.27;4.67;;;1.90;66.10;;;;;;5033983;28;20035;-82
2022/03/08 05:04:26;;;;;;;8.90;4.20;;;1.90;66.80;;;;;;5033789;28;20508;-83
2022/03/08 05:06:52;;;;;;;11.20;4.90;;;1.80;66.20;;;;;;5033857;28;20545;-82
2022/03/08 05:09:17;;;;;;;10.53;4.43;;;1.80;66.20;;;;;;5033695;28;20402;-84
2022/03/08 05:11:44;;;;;;;7.57;4.33;;;1.80;66.10;;;;;;5033611;28;20025;-83
2022/03/08 05:14:09;;;;;;;8.10;4.37;;;1.80;66.10;;;;;;5049311;28;20037;-83
2022/03/08 05:16:35;;;;;;;9.30;4.73;;;1.80;66.20;;;;;;5044023;28;20029;-83
2022/03/08 05:19:01;;;;;;;8.63;3.90;;;1.80;66.30;;;;;;5037025;28;20166;-83
2022/03/08 05:21:26;;;;;;;9.37;4.47;;;1.70;66.20;;;;;;5036808;28;20087;-83
2022/03/08 05:23:52;;;;;;;8.03;4.10;;;1.70;66.20;;;;;;5036841;28;20040;-82
2022/03/08 05:26:18;;;;;;;8.37;4.27;;;1.70;66.30;;;;;;5016754;28;20037;-82
2022/03/08 05:28:43;;;;;;;7.70;4.03;;;1.70;66.40;;;;;;5053778;28;20033;-82
2022/03/08 05:31:10;;;;;;;8.23;4.30;;;1.70;66.40;;;;;;5036399;28;20033;-82
2022/03/08 05:33:36;;;;;;;6.70;3.93;;;1.70;66.50;;;;;;5038754;28;20060;-82
2022/03/08 05:36:02;;;;;;;10.93;4.97;;;1.70;66.40;;;;;;5023421;28;20029;-83
2022/03/08 05:38:28;;;;;;;8.33;4.10;;;1.60;66.40;;;;;;5035506;28;20102;-83
2022/03/08 05:40:54;;;;;;;11.47;4.93;;;1.60;66.40;;;;;;5032992;28;20407;-82
2022/03/08 05:43:19;;;;;;;7.80;3.83;;;1.60;66.50;;;;;;5021699;28;20112;-83
2022/03/08 05:45:45;;;;;;;6.87;3.73;;;1.60;66.50;;;;;;5028037;28;20029;-83
2022/03/08 05:48:11;;;;;;;8.07;4.37;;;1.50;66.50;;;;;;5028028;28;20055;-82
2022/03/08 05:50:37;;;;;;;10.07;4.43;;;1.50;66.50;;;;;;5028466;28;20025;-82
2022/03/08 05:53:03;;;;;;;10.63;4.37;;;1.50;66.90;;;;;;5036599;28;20025;-82
2022/03/08 05:55:29;;;;;;;10.27;4.57;;;1.50;66.80;;;;;;5031646;28;20054;-81
2022/03/08 05:57:55;;;;;;;9.83;4.87;;;1.50;66.80;;;;;;5033782;28;20033;-83
2022/03/08 06:00:20;;;;;;;10.13;4.33;;;1.50;66.80;;;;;;5033840;28;20045;-83
2022/03/08 06:02:46;;;;;;;8.23;4.00;;;1.50;66.90;;;;;;5032510;28;20029;-82
2022/03/08 06:05:12;;;;;;;7.67;4.07;;;1.50;66.90;;;;;;5038850;28;20034;-82
2022/03/08 06:07:38;;;;;;;9.43;4.47;;;1.40;66.90;;;;;;5034577;28;20129;-82
2022/03/08 06:10:07;;;;;;;7.70;4.13;;;1.50;67.00;;;;;;5018667;28;20025;-82
2022/03/08 06:12:33;;;;;;;8.17;3.93;;;1.40;66.90;;;;;;5050896;28;20018;-82
2022/03/08 06:14:59;;;;;;;7.73;4.40;;;1.40;67.00;;;;;;5039844;28;20370;-82
2022/03/08 06:17:25;;;;;;;8.67;4.50;;;1.50;67.00;;;;;;5035375;28;20036;-81
2022/03/08 06:19:51;;;;;;;10.40;4.97;;;1.40;67.00;;;;;;5035903;28;20030;-81
2022/03/08 06:22:16;;;;;;;9.37;4.40;;;1.40;67.00;;;;;;5007761;28;20029;-82
2022/03/08 06:24:42;;;;;;;9.37;4.77;;;1.40;67.50;;;;;;5031363;28;20547;-82
2022/03/08 06:27:08;;;;;;;7.50;4.30;;;1.50;67.40;;;;;;5013053;28;20113;-82
2022/03/08 06:29:33;;;;;;;11.27;5.40;;;1.50;67.30;;;;;;4999632;28;20076;-82
2022/03/08 06:31:59;;;;;;;10.13;5.20;;;1.50;67.20;;;;;;5015767;28;20032;-80
2022/03/08 06:34:24;;;;;;;8.97;4.67;;;1.50;67.20;;;;;;5033572;28;20043;-80
2022/03/08 06:36:50;;;;;;;12.13;4.33;;;1.60;67.50;;;;;;5032257;28;20033;-81
2022/03/08 06:39:16;;;;;;;10.80;5.57;;;1.50;67.40;;;;;;5033696;28;20100;-80
2022/03/08 06:41:41;;;;;;;9.07;4.70;;;1.60;67.70;;;;;;5033333;28;20478;-82
2022/03/08 06:44:08;;;;;;;12.23;5.13;;;1.60;67.70;;;;;;5032106;28;20059;-81
2022/03/08 06:46:33;;;;;;;10.60;5.27;;;1.60;67.70;;;;;;5033371;28;20037;-80
2022/03/08 06:48:59;;;;;;;10.43;5.60;;;1.70;67.70;;;;;;5036265;28;20397;-81
2022/03/08 06:51:25;;;;;;;11.33;5.47;;;1.70;67.60;;;;;;5014294;28;20029;-81
2022/03/08 06:53:51;;;;;;;9.57;5.37;;;1.70;67.90;;;;;;5032136;28;20471;-80
2022/03/08 06:56:18;;;;;;;10.27;5.40;;;1.80;67.90;;;;;;5032132;28;20036;-80
2022/03/08 06:58:43;;;;;;;8.80;5.17;;;1.80;67.90;;;;;;5036011;28;20500;-80
2022/03/08 07:01:09;;;;;;;9.07;5.23;;;1.90;67.80;;;;;;5041064;28;20041;-80
2022/03/08 07:03:35;;;;;;;10.20;5.60;;;1.90;67.80;;;;;;5030799;28;20477;-79
2022/03/08 07:06:01;;;;;;;9.73;5.20;;;1.90;67.60;;;;;;5017136;28;20068;-80
2022/03/08 07:08:26;;;;;;;10.50;5.27;;;2.00;67.70;;;;;;5032724;28;20033;-80
2022/03/08 07:10:52;;;;;;;10.83;5.10;;;1.90;67.60;;;;;;5027368;28;20476;-80
2022/03/08 07:13:18;;;;;;;8.97;5.10;;;2.00;67.70;;;;;;5048559;28;20385;-80
2022/03/08 07:15:43;;;;;;;12.97;5.67;;;2.10;67.70;;;;;;5031728;28;20124;-79
2022/03/08 07:18:09;;;;;;;10.73;5.03;;;2.10;67.50;;;;;;5048041;28;20029;-80
2022/03/08 07:20:35;;;;;;;12.83;6.03;;;2.10;67.40;;;;;;4998612;28;20053;-81
2022/03/08 07:23:00;;;;;;;10.10;5.03;;;2.30;67.50;;;;;;5048117;28;20290;-79
2022/03/08 07:25:26;;;;;;;11.47;5.00;;;2.20;67.30;;;;;;5048380;28;20369;-80
2022/03/08 07:27:52;;;;;;;8.90;5.07;;;2.20;67.30;;;;;;5031715;28;20097;-80
2022/03/08 07:30:17;;;;;;;12.30;6.10;;;2.30;67.20;;;;;;5031427;28;20025;-80
2022/03/08 07:32:43;;;;;;;10.67;5.33;;;2.30;67.10;;;;;;5032904;28;20462;-81
2022/03/08 07:35:09;;;;;;;12.37;5.83;;;2.40;67.00;;;;;;5015186;28;20044;-81
2022/03/08 07:37:36;;;;;;;8.73;4.97;;;2.40;67.20;;;;;;5016905;28;20143;-79
2022/03/08 07:40:04;;;;;;;9.40;5.43;;;2.50;67.00;;;;;;5041378;28;20033;-80
2022/03/08 07:42:30;;;;;;;11.13;5.50;;;2.50;66.90;;;;;;5051763;28;20117;-80
2022/03/08 07:44:55;;;;;;;9.90;5.00;;;2.50;66.80;;;;;;5018795;28;20125;-80
2022/03/08 07:47:21;;;;;;;10.37;5.57;;;2.60;66.90;;;;;;5035385;28;20021;-80
2022/03/08 07:49:47;;;;;;;14.23;6.23;;;2.60;66.90;;;;;;5035038;28;20053;-80
2022/03/08 07:52:13;;;;;;;9.80;5.47;;;2.60;66.80;;;;;;5035033;28;20033;-79
2022/03/08 07:54:38;;;;;;;10.40;5.37;;;2.70;66.80;;;;;;5002470;28;20045;-79
2022/03/08 07:57:04;;;;;;;10.43;5.50;;;2.70;66.70;;;;;;5043721;28;20016;-80
2022/03/08 07:59:30;;;;;;;11.63;5.77;;;2.80;66.70;;;;;;5055223;28;20074;-80
2022/03/08 08:01:56;;;;;;;11.30;5.97;;;2.80;66.60;;;;;;5054869;28;20029;-81
2022/03/08 08:04:23;;;;;;;11.43;6.17;;;2.90;66.60;;;;;;5038377;28;20040;-80
2022/03/08 08:06:49;;;;;;;9.00;5.13;;;3.00;67.20;;;;;;5022297;28;20029;-80
2022/03/08 08:09:14;;;;;;;12.13;5.80;;;3.00;66.60;;;;;;5054874;28;20485;-80
2022/03/08 08:11:40;;;;;;;11.07;5.50;;;3.10;66.60;;;;;;5048253;28;20100;-80
2022/03/08 08:14:06;;;;;;;10.27;5.47;;;3.20;66.60;;;;;;5018479;28;20037;-80
2022/03/08 08:16:31;;;;;;;13.17;6.23;;;3.20;66.20;;;;;;5021987;28;20060;-80
2022/03/08 08:18:58;;;;;;;9.47;5.10;;;3.30;66.10;;;;;;5035845;28;20112;-81
2022/03/08 08:21:24;;;;;;;10.07;5.83;;;3.40;65.90;;;;;;5036084;28;20096;-82
2022/03/08 08:23:50;;;;;;;12.30;6.17;;;3.40;65.50;;;;;;5034924;28;20163;-81
2022/03/08 08:26:16;;;;;;;15.13;5.63;;;3.50;65.20;;;;;;5036175;28;20049;-81
2022/03/08 08:28:42;;;;;;;11.83;5.73;;;3.60;65.20;;;;;;5034753;28;20069;-81
2022/03/08 08:31:07;;;;;;;11.63;6.03;;;3.60;65.40;;;;;;5035642;28;20030;-80
2022/03/08 08:33:33;;;;;;;10.07;5.20;;;3.70;64.70;;;;;;5018383;28;20033;-80
2022/03/08 08:35:59;;;;;;;9.60;5.77;;;3.80;64.70;;;;;;5050962;28;20033;-79
2022/03/08 08:38:25;;;;;;;9.50;5.37;;;3.70;64.30;;;;;;5035712;28;20025;-80
2022/03/08 08:40:51;;;;;;;11.10;5.17;;;3.90;64.00;;;;;;5017791;28;20124;-80
2022/03/08 08:43:17;;;;;;;9.87;5.30;;;4.00;63.90;;;;;;5018074;28;20513;-80
2022/03/08 08:45:42;;;;;;;9.27;4.87;;;4.10;63.90;;;;;;5017880;28;20556;-80
2022/03/08 08:48:09;;;;;;;10.77;5.60;;;4.10;63.60;;;;;;5033590;28;20030;-80
2022/03/08 08:50:36;;;;;;;10.03;5.03;;;4.10;63.50;;;;;;5049140;28;20029;-81
2022/03/08 08:53:02;;;;;;;12.03;5.70;;;4.40;63.40;;;;;;5053711;28;20071;-81
2022/03/08 08:55:28;;;;;;;10.37;5.73;;;4.40;62.90;;;;;;5055202;28;20107;-80
2022/03/08 08:57:53;;;;;;;8.07;4.83;;;4.40;62.70;;;;;;5054231;28;20053;-80
2022/03/08 09:00:19;;;;;;;12.87;5.07;;;4.50;62.70;;;;;;5054061;28;20040;-81
2022/03/08 09:02:45;;;;;;;10.27;5.13;;;4.60;63.20;;;;;;5053964;28;20058;-81
2022/03/08 09:05:14;;;;;;;10.77;5.03;;;4.60;62.20;;;;;;5040600;28;20420;-81
2022/03/08 09:07:40;;;;;;;10.77;5.57;;;4.80;62.10;;;;;;5033969;28;20025;-81
2022/03/08 09:10:07;;;;;;;8.83;4.57;;;4.80;63.00;;;;;;5035569;28;20017;-83
2022/03/08 09:12:33;;;;;;;7.30;4.70;;;5.00;62.10;;;;;;5017792;28;20022;-79
2022/03/08 09:15:00;;;;;;;11.80;5.30;;;5.00;62.00;;;;;;5033260;28;20038;-81
2022/03/08 09:17:26;;;;;;;8.10;5.20;;;5.10;61.10;;;;;;5041731;28;20071;-78
2022/03/08 09:19:51;;;;;;;14.93;5.47;;;5.20;60.90;;;;;;5033676;28;20030;-83
2022/03/08 09:22:17;;;;;;;9.70;5.40;;;5.30;60.40;;;;;;5016839;28;20034;-81
2022/03/08 09:24:43;;;;;;;11.77;5.23;;;5.40;59.60;;;;;;5033497;28;20052;-82
2022/03/08 09:27:09;;;;;;;8.67;5.17;;;5.40;59.70;;;;;;5033718;28;20017;-82
2022/03/08 09:29:35;;;;;;;11.57;5.60;;;5.50;59.50;;;;;;5033672;28;20032;-82
2022/03/08 09:32:00;;;;;;;11.93;5.77;;;5.60;59.10;;;;;;5033594;28;20116;-82
2022/03/08 09:34:26;;;;;;;12.40;6.07;;;5.60;58.90;;;;;;5052797;28;20041;-81
2022/03/08 09:36:52;;;;;;;8.23;5.53;;;5.70;58.50;;;;;;5054682;28;20477;-82
2022/03/08 09:39:17;;;;;;;9.23;5.50;;;5.80;58.60;;;;;;5031587;28;20029;-82
2022/03/08 09:41:43;;;;;;;9.57;5.37;;;5.80;58.50;;;;;;5034553;28;20029;-82
2022/03/08 09:44:13;;;;;;;10.57;5.57;;;5.90;58.80;;;;;;5016109;28;20045;-81
2022/03/08 09:46:40;;;;;;;12.87;6.30;;;6.00;58.10;;;;;;5021449;28;20516;-80
2022/03/08 09:49:05;;;;;;;12.03;5.67;;;6.10;58.10;;;;;;5048575;28;20120;-82
2022/03/08 09:51:31;;;;;;;9.53;5.00;;;6.10;57.60;;;;;;5053128;28;20107;-81
2022/03/08 09:53:57;;;;;;;9.37;5.10;;;6.30;56.90;;;;;;5053868;28;20029;-82
2022/03/08 09:56:22;;;;;;;10.23;5.27;;;6.30;56.70;;;;;;5036302;28;20048;-81
2022/03/08 09:58:48;;;;;;;10.03;5.43;;;6.30;56.70;;;;;;5035940;28;20036;-82
2022/03/08 10:01:14;;;;;;;8.77;5.17;;;6.40;56.50;;;;;;5048571;28;20033;-81
2022/03/08 10:03:46;;;;;;;10.83;5.43;;;6.50;56.80;;;;;;5040856;28;20034;-81
2022/03/08 10:06:12;;;;;;;9.63;5.47;;;6.70;56.40;;;;;;5034124;28;20026;-81
2022/03/08 10:08:38;;;;;;;8.40;5.37;;;7.00;56.30;;;;;;5032839;28;20063;-81
2022/03/08 10:11:11;;;;;;;11.00;5.63;;;7.20;55.70;;;;;;5032825;28;20084;-81
2022/03/08 10:13:42;;;;;;;7.70;4.97;;;7.60;55.80;;;;;;5032590;28;20470;-81
2022/03/08 10:16:12;;;;;;;9.17;4.80;;;8.00;55.10;;;;;;5032612;28;20390;-82
2022/03/08 10:18:45;;;;;;;7.23;4.00;;;8.60;55.30;;;;;;5032599;28;20453;-82
2022/03/08 10:21:57;;;;;;;8.50;3.93;;;9.30;54.70;;;;;;5032711;28;20022;-81
2022/03/08 10:24:31;;;;;;;5.90;2.97;;;10.30;53.90;;;;;;5022906;28;20046;-81
2022/03/08 10:27:09;;;;;;;11.15;3.55;;;11.30;54.30;;;;;;5034034;28;20057;-83
2022/03/08 10:29:37;;;;;;;7.28;3.08;;;12.20;52.70;;;;;;5030875;28;20477;-80
2022/03/08 10:32:19;;;;;;;7.32;3.28;;;13.00;51.30;;;;;;5032397;28;20018;-81
2022/03/08 10:34:47;;;;;;;5.25;2.70;;;13.90;51.10;;;;;;5032391;28;20025;-81
2022/03/08 10:37:20;;;;;;;5.82;2.90;;;14.60;47.30;;;;;;5032049;28;20124;-84
2022/03/08 10:39:51;;;;;;;8.02;3.20;;;15.30;45.60;;;;;;5032557;28;20363;-84
2022/03/08 10:42:22;;;;;;;7.72;3.20;;;15.80;44.20;;;;;;5049831;28;20117;-81
2022/03/08 10:44:48;;;;;;;5.72;2.85;;;16.30;43.20;;;;;;5052169;28;20036;-82
2022/03/08 10:47:15;;;;;;;6.07;2.90;;;16.80;42.70;;;;;;5052075;28;20017;-82
2022/03/08 10:50:09;;;;;;;7.88;3.05;;;17.20;40.50;;;;;;5019112;28;20524;-84
2022/03/08 10:52:37;;;;;;;6.68;2.65;;;17.60;37.80;;;;;;5040607;28;20064;-82
2022/03/08 10:55:17;;;;;;;5.13;3.03;;;17.80;37.90;;;;;;5031972;28;20022;-82
2022/03/08 10:57:49;;;;;;;6.93;3.03;;;18.20;37.70;;;;;;5032032;28;20036;-85
2022/03/08 11:00:16;;;;;;;4.75;2.05;;;18.50;36.50;;;;;;5032212;28;20385;-82
2022/03/08 11:02:56;;;;;;;4.35;2.22;;;18.70;35.60;;;;;;5016380;28;20029;-82
2022/03/08 11:05:29;;;;;;;4.03;2.40;;;18.90;33.40;;;;;;5032453;28;20120;-83
2022/03/08 11:07:57;;;;;;;3.80;2.40;;;18.90;32.10;;;;;;5033709;28;20039;-83
2022/03/08 11:10:24;;;;;;;6.07;2.17;;;18.80;31.30;;;;;;5032242;28;20083;-83
2022/03/08 11:12:50;;;;;;;5.43;2.40;;;18.80;31.30;;;;;;5031450;28;20021;-84
2022/03/08 11:15:17;;;;;;;4.28;2.30;;;18.80;31.30;;;;;;5015852;28;20390;-81
2022/03/08 11:17:48;;;;;;;5.20;2.40;;;18.80;30.90;;;;;;5016055;28;20034;-86
2022/03/08 11:20:17;;;;;;;4.75;2.42;;;18.80;30.90;;;;;;5035624;28;20025;-87
2022/03/08 11:22:43;;;;;;;3.83;2.60;;;18.70;30.60;;;;;;5051967;28;20024;-80
2022/03/08 11:25:16;;;;;;;3.80;1.85;;;18.80;30.70;;;;;;5035610;28;20599;-87
2022/03/08 11:27:43;;;;;;;5.57;2.53;;;19.00;30.80;;;;;;5052465;28;20037;-87
2022/03/08 11:30:11;;;;;;;4.88;2.47;;;19.10;30.10;;;;;;5051761;28;20116;-81
2022/03/08 11:32:46;;;;;;;7.10;2.25;;;19.20;30.00;;;;;;5052132;28;20021;-82
2022/03/08 11:35:57;;;;;;;6.18;2.10;;;19.40;30.40;;;;;;5051392;28;20389;-82
2022/03/08 11:38:23;;;;;;;3.47;1.42;;;19.60;30.60;;;;;;5030641;28;20030;-81
2022/03/08 11:40:53;;;;;;;4.40;1.92;;;20.00;31.10;;;;;;5029720;28;20041;-82
2022/03/08 11:43:20;;;;;;;4.38;2.05;;;20.40;30.50;;;;;;5051445;28;20029;-81
2022/03/08 11:45:50;;;;;;;4.03;2.00;;;20.80;30.00;;;;;;5031444;28;20040;-84
2022/03/08 11:48:22;;;;;;;3.55;1.90;;;21.00;29.50;;;;;;5031718;28;20604;-86
2022/03/08 11:50:48;;;;;;;5.38;2.13;;;21.10;28.80;;;;;;5016670;28;20044;-87
2022/03/08 11:53:17;;;;;;;10.18;2.17;;;21.00;28.50;;;;;;5018674;28;20075;-81
2022/03/08 11:55:55;;;;;;;3.80;2.03;;;21.10;29.10;;;;;;5051381;28;20021;-80
2022/03/08 11:58:22;;;;;;;4.65;1.92;;;21.20;28.60;;;;;;5035750;28;20040;-83
2022/03/08 12:00:50;;;;;;;4.38;2.05;;;21.40;28.60;;;;;;5039957;28;20030;-80
2022/03/08 12:03:22;;;;;;;5.68;2.20;;;21.50;28.30;;;;;;5031470;28;20018;-81
2022/03/08 12:05:56;;;;;;;4.78;2.22;;;21.50;28.20;;;;;;5031291;28;20112;-86
2022/03/08 12:08:21;;;;;;;5.03;2.17;;;21.60;28.20;;;;;;5031933;28;20029;-85
2022/03/08 12:10:48;;;;;;;3.75;2.17;;;21.70;27.80;;;;;;5035010;28;20098;-84
2022/03/08 12:13:15;;;;;;;4.63;2.78;;;21.60;27.50;;;;;;5052241;28;20107;-83
2022/03/08 12:16:28;;;;;;;6.53;3.28;;;21.50;27.50;;;;;;5035007;28;20064;-81
2022/03/08 12:18:56;;;;;;;5.72;2.25;;;21.60;27.90;;;;;;5014146;28;20191;-83
2022/03/08 12:21:25;;;;;;;8.13;3.20;;;21.80;27.90;;;;;;5014148;28;20026;-85
2022/03/08 12:23:53;;;;;;;6.45;2.28;;;22.00;27.90;;;;;;5045098;28;20045;-82
2022/03/08 12:26:38;;;;;;;5.47;2.05;;;22.10;27.80;;;;;;5040116;28;20429;-81
2022/03/08 12:29:13;;;;;;;4.80;2.80;;;22.30;27.80;;;;;;5035975;28;20100;-82
2022/03/08 12:31:57;;;;;;;5.72;3.03;;;22.60;27.70;;;;;;5046944;28;20021;-82
2022/03/08 12:34:43;;;;;;;5.68;2.30;;;22.70;27.30;;;;;;5054714;28;20033;-83
2022/03/08 12:37:30;;;;;;;4.05;2.00;;;22.90;27.30;;;;;;5055932;28;20468;-83
2022/03/08 12:40:27;;;;;;;3.50;2.17;;;23.00;27.90;;;;;;5044663;28;20033;-82
2022/03/08 12:42:56;;;;;;;6.13;2.80;;;23.10;27.20;;;;;;5035529;28;20029;-81
2022/03/08 12:45:30;;;;;;;4.57;2.42;;;23.30;27.20;;;;;;5034622;28;20095;-83
2022/03/08 12:48:05;;;;;;;6.50;2.42;;;23.40;27.10;;;;;;5040957;28;20072;-84
2022/03/08 12:50:35;;;;;;;3.50;2.10;;;23.50;26.70;;;;;;5054958;28;20033;-84
2022/03/08 12:53:18;;;;;;;3.35;1.95;;;23.30;26.60;;;;;;5055029;28;20022;-87